createdAt,value
2019-01-25T00:00:11.748Z,6.13
2019-01-25T00:02:38.989Z,7.93
2019-01-25T00:05:07.139Z,5.40
2019-01-25T00:07:34.572Z,8.13
2019-01-25T00:10:02.121Z,7.70
2019-01-25T00:12:29.466Z,7.57
2019-01-25T00:14:56.747Z,9.27
2019-01-25T00:17:24.111Z,8.30
2019-01-25T00:19:51.440Z,7.20
2019-01-25T00:22:18.870Z,8.13
2019-01-25T00:24:46.160Z,8.17
2019-01-25T00:27:13.456Z,6.80
2019-01-25T00:29:40.811Z,8.17
2019-01-25T00:32:08.054Z,8.13
2019-01-25T00:34:35.475Z,8.47
2019-01-25T00:37:02.736Z,6.97
2019-01-25T00:39:29.992Z,7.27
2019-01-25T00:41:57.327Z,7.40
2019-01-25T00:44:24.643Z,9.40
2019-01-25T00:46:52.230Z,8.47
2019-01-25T00:49:19.668Z,8.30
2019-01-25T00:51:46.964Z,10.60
2019-01-25T00:54:14.293Z,6.87
2019-01-25T00:56:41.612Z,8.90
2019-01-25T00:59:08.981Z,7.73
2019-01-25T01:01:36.455Z,6.80
2019-01-25T01:04:04.498Z,9.30
2019-01-25T01:06:31.892Z,8.43
2019-01-25T01:08:59.288Z,6.80
2019-01-25T01:11:26.506Z,9.37
2019-01-25T01:13:53.799Z,9.43
2019-01-25T01:16:21.217Z,7.83
2019-01-25T01:18:48.584Z,9.63
2019-01-25T01:21:16.036Z,8.97
2019-01-25T01:23:43.387Z,9.23
2019-01-25T01:26:10.750Z,12.97
2019-01-25T01:28:38.001Z,10.67
2019-01-25T01:31:05.421Z,7.70
2019-01-25T01:33:32.663Z,8.40
2019-01-25T01:35:59.889Z,9.60
2019-01-25T01:38:27.343Z,13.07
2019-01-25T01:40:54.575Z,9.63
2019-01-25T01:43:22.132Z,9.70
2019-01-25T01:45:49.607Z,11.50
2019-01-25T01:48:17.037Z,10.40
2019-01-25T01:50:44.480Z,13.40
2019-01-25T01:53:11.800Z,17.63
2019-01-25T01:55:39.126Z,18.90
2019-01-25T01:58:06.584Z,15.50
2019-01-25T02:00:33.940Z,22.37
2019-01-25T02:03:01.296Z,21.93
2019-01-25T02:05:28.660Z,20.17
2019-01-25T02:07:55.968Z,22.07
2019-01-25T02:10:29.227Z,22.33
2019-01-25T02:12:54.392Z,23.73
2019-01-25T02:15:22.523Z,19.50
2019-01-25T02:17:50.357Z,25.50
2019-01-25T02:20:22.602Z,21.40
2019-01-25T02:22:49.949Z,24.10
2019-01-25T02:25:17.240Z,22.10
2019-01-25T02:27:44.814Z,23.03
2019-01-25T02:30:15.345Z,23.63
2019-01-25T02:32:42.739Z,23.77
2019-01-25T02:35:10.508Z,23.57
2019-01-25T02:37:37.952Z,26.80
2019-01-25T02:40:05.509Z,29.43
2019-01-25T02:42:33.359Z,25.23
2019-01-25T02:45:00.845Z,25.37
2019-01-25T02:47:28.408Z,26.70
2019-01-25T02:49:55.762Z,22.67
2019-01-25T02:52:23.092Z,26.73
2019-01-25T02:54:50.375Z,24.93
2019-01-25T02:57:17.808Z,26.50
2019-01-25T02:59:45.192Z,23.30
2019-01-25T03:02:12.507Z,26.97
2019-01-25T03:04:39.883Z,27.87
2019-01-25T03:07:07.268Z,26.07
2019-01-25T03:09:34.619Z,27.40
2019-01-25T03:12:01.962Z,27.27
2019-01-25T03:14:29.318Z,28.77
2019-01-25T03:16:56.576Z,26.70
2019-01-25T03:19:23.944Z,24.07
2019-01-25T03:21:51.259Z,25.53
2019-01-25T03:24:18.620Z,27.83
2019-01-25T03:26:45.851Z,27.30
2019-01-25T03:29:13.105Z,22.30
2019-01-25T03:31:40.459Z,29.07
2019-01-25T03:34:07.834Z,24.50
2019-01-25T03:36:35.261Z,28.03
2019-01-25T03:39:06.588Z,27.83
2019-01-25T03:41:33.911Z,25.17
2019-01-25T03:44:01.359Z,26.87
2019-01-25T03:46:28.684Z,17.40
2019-01-25T03:48:56.025Z,27.90
2019-01-25T03:51:23.336Z,25.33
2019-01-25T03:53:51.000Z,23.87
2019-01-25T03:56:18.221Z,24.97
2019-01-25T03:58:45.776Z,29.40
2019-01-25T04:01:13.264Z,30.10
2019-01-25T04:03:40.573Z,25.53
2019-01-25T04:06:07.847Z,29.13
2019-01-25T04:08:35.444Z,22.87
2019-01-25T04:11:03.745Z,28.70
2019-01-25T04:13:31.488Z,25.43
2019-01-25T04:15:59.128Z,23.73
2019-01-25T04:18:26.575Z,24.87
2019-01-25T04:20:53.891Z,24.00
2019-01-25T04:23:21.327Z,25.00
2019-01-25T04:25:48.713Z,25.90
2019-01-25T04:28:15.991Z,24.87
2019-01-25T04:30:43.335Z,24.27
2019-01-25T04:33:10.730Z,25.33
2019-01-25T04:35:38.060Z,26.00
2019-01-25T04:38:05.392Z,28.97
2019-01-25T04:40:32.663Z,23.73
2019-01-25T04:43:00.097Z,26.20
2019-01-25T04:45:27.552Z,26.00
2019-01-25T04:47:54.783Z,24.20
2019-01-25T04:50:23.826Z,25.93
2019-01-25T04:52:51.877Z,23.47
2019-01-25T04:55:25.191Z,24.93
2019-01-25T04:57:52.491Z,26.10
2019-01-25T05:00:20.575Z,24.07
2019-01-25T05:02:55.614Z,24.73
2019-01-25T05:05:23.284Z,25.73
2019-01-25T05:07:52.394Z,24.30
2019-01-25T05:10:19.750Z,24.03
2019-01-25T05:12:53.266Z,23.87
2019-01-25T05:15:20.641Z,24.27
2019-01-25T05:17:51.533Z,23.37
2019-01-25T05:20:18.905Z,26.20
2019-01-25T05:22:52.065Z,24.63
2019-01-25T05:25:21.848Z,25.77
2019-01-25T05:27:49.542Z,28.87
2019-01-25T05:30:16.807Z,25.80
2019-01-25T05:32:44.170Z,24.63
2019-01-25T05:35:11.468Z,27.40
2019-01-25T05:37:38.710Z,27.33
2019-01-25T05:40:06.597Z,27.80
2019-01-25T05:42:33.916Z,22.10
2019-01-25T05:45:08.060Z,23.07
2019-01-25T05:47:35.338Z,25.87
2019-01-25T05:50:03.626Z,22.97
2019-01-25T05:52:31.044Z,22.77
2019-01-25T05:54:58.312Z,22.80
2019-01-25T05:57:25.653Z,22.30
2019-01-25T05:59:52.962Z,23.33
2019-01-25T06:02:20.436Z,23.17
2019-01-25T06:04:47.752Z,24.17
2019-01-25T06:07:14.993Z,24.07
2019-01-25T06:09:42.312Z,22.90
2019-01-25T06:12:09.559Z,19.33
2019-01-25T06:14:37.017Z,20.10
2019-01-25T06:17:04.327Z,22.53
2019-01-25T06:19:40.947Z,21.00
2019-01-25T06:22:08.256Z,24.63
2019-01-25T06:24:35.567Z,20.27
2019-01-25T06:27:03.151Z,20.87
2019-01-25T06:29:32.070Z,19.97
2019-01-25T06:31:59.417Z,20.47
2019-01-25T06:34:26.848Z,20.07
2019-01-25T06:36:54.073Z,22.50
2019-01-25T06:39:21.426Z,23.17
2019-01-25T06:41:48.771Z,22.50
2019-01-25T06:44:16.015Z,21.70
2019-01-25T06:46:43.459Z,26.63
2019-01-25T06:49:10.716Z,21.17
2019-01-25T06:51:37.855Z,22.13
2019-01-25T06:54:05.079Z,21.03
2019-01-25T06:56:32.664Z,21.00
2019-01-25T06:59:10.810Z,23.37
2019-01-25T07:02:00.228Z,22.60
2019-01-25T07:04:27.646Z,20.23
2019-01-25T07:06:54.904Z,23.50
2019-01-25T07:09:22.125Z,22.77
2019-01-25T07:11:51.749Z,21.37
2019-01-25T07:14:18.572Z,21.17
2019-01-25T07:16:45.991Z,21.00
2019-01-25T07:19:13.344Z,22.97
2019-01-25T07:21:40.560Z,19.43
2019-01-25T07:24:07.979Z,21.17
2019-01-25T07:26:35.232Z,22.37
2019-01-25T07:29:02.457Z,19.17
2019-01-25T07:31:30.053Z,21.77
2019-01-25T07:33:57.432Z,21.43
2019-01-25T07:36:24.777Z,20.23
2019-01-25T07:38:51.961Z,20.27
2019-01-25T07:41:19.283Z,22.43
2019-01-25T07:43:46.627Z,22.57
2019-01-25T07:46:13.976Z,18.50
2019-01-25T07:48:41.332Z,20.37
2019-01-25T07:51:08.828Z,20.73
2019-01-25T07:53:36.241Z,22.93
2019-01-25T07:56:03.764Z,20.17
2019-01-25T07:58:31.071Z,21.20
2019-01-25T08:00:58.360Z,18.03
2019-01-25T08:03:25.980Z,15.87
2019-01-25T08:05:53.413Z,19.43
2019-01-25T08:08:21.049Z,20.80
2019-01-25T08:10:48.472Z,18.43
2019-01-25T08:13:16.072Z,17.43
2019-01-25T08:15:43.380Z,17.20
2019-01-25T08:18:10.688Z,18.33
2019-01-25T08:20:38.055Z,17.30
2019-01-25T08:23:05.366Z,20.40
2019-01-25T08:25:32.983Z,18.57
2019-01-25T08:28:00.292Z,18.93
2019-01-25T08:30:27.709Z,18.33
2019-01-25T08:32:55.106Z,20.27
2019-01-25T08:35:22.544Z,18.07
2019-01-25T08:37:49.861Z,18.90
2019-01-25T08:40:17.575Z,17.30
2019-01-25T08:42:44.976Z,19.27
2019-01-25T08:45:12.568Z,19.93
2019-01-25T08:47:39.877Z,18.67
2019-01-25T08:50:10.982Z,23.87
2019-01-25T08:52:38.398Z,18.63
2019-01-25T08:55:05.997Z,19.10
2019-01-25T08:57:33.381Z,17.53
2019-01-25T09:00:00.581Z,18.03
2019-01-25T09:02:27.932Z,19.70
2019-01-25T09:04:55.253Z,19.00
2019-01-25T09:07:22.592Z,19.57
2019-01-25T09:09:49.815Z,19.23
2019-01-25T09:12:23.247Z,19.33
2019-01-25T09:14:46.848Z,19.73
2019-01-25T09:17:14.211Z,16.50
2019-01-25T09:19:41.524Z,18.63
2019-01-25T09:22:08.874Z,16.97
2019-01-25T09:24:36.100Z,19.33
2019-01-25T09:27:03.868Z,19.37
2019-01-25T09:29:31.339Z,17.27
2019-01-25T09:31:58.568Z,16.73
2019-01-25T09:34:25.979Z,18.37
2019-01-25T09:36:53.240Z,18.03
2019-01-25T09:39:20.573Z,22.10
2019-01-25T09:41:47.923Z,19.07
2019-01-25T09:44:15.192Z,19.23
2019-01-25T09:46:42.603Z,21.57
2019-01-25T09:49:09.844Z,15.80
2019-01-25T09:51:37.101Z,19.87
2019-01-25T09:54:04.878Z,18.60
2019-01-25T09:56:32.192Z,18.10
2019-01-25T09:58:59.932Z,17.30
2019-01-25T10:01:27.221Z,15.63
2019-01-25T10:03:54.447Z,14.30
2019-01-25T10:06:21.696Z,17.13
2019-01-25T10:08:49.004Z,19.70
2019-01-25T10:11:16.241Z,16.63
2019-01-25T10:13:43.481Z,15.47
2019-01-25T10:16:10.828Z,22.03
2019-01-25T10:18:38.144Z,19.03
2019-01-25T10:21:05.556Z,20.83
2019-01-25T10:23:33.020Z,21.13
2019-01-25T10:26:00.231Z,22.13
2019-01-25T10:28:27.560Z,19.53
2019-01-25T10:30:54.905Z,21.60
2019-01-25T10:33:22.156Z,21.53
2019-01-25T10:35:49.594Z,19.30
2019-01-25T10:38:17.036Z,20.37
2019-01-25T10:40:44.349Z,19.37
2019-01-25T10:43:11.808Z,19.40
2019-01-25T10:45:39.925Z,18.60
2019-01-25T10:48:07.654Z,18.60
2019-01-25T10:50:35.177Z,20.23
2019-01-25T10:53:02.526Z,18.73
2019-01-25T10:55:29.959Z,18.57
2019-01-25T10:57:57.267Z,19.40
2019-01-25T11:00:24.623Z,20.37
2019-01-25T11:02:57.930Z,20.27
2019-01-25T11:05:22.058Z,20.93
2019-01-25T11:07:49.343Z,19.50
2019-01-25T11:10:16.565Z,18.47
2019-01-25T11:12:43.908Z,22.13
2019-01-25T11:15:14.686Z,21.30
2019-01-25T11:17:41.914Z,22.93
2019-01-25T11:20:11.981Z,21.30
2019-01-25T11:22:39.440Z,21.73
2019-01-25T11:25:10.156Z,19.90
2019-01-25T11:27:37.479Z,21.43
2019-01-25T11:30:05.636Z,19.97
2019-01-25T11:32:32.994Z,24.00
2019-01-25T11:35:00.285Z,22.93
2019-01-25T11:37:27.607Z,21.83
2019-01-25T11:39:54.838Z,20.10
2019-01-25T11:42:22.179Z,20.20
2019-01-25T11:44:49.327Z,21.30
2019-01-25T11:47:16.809Z,20.40
2019-01-25T11:49:44.312Z,20.77
2019-01-25T11:52:11.562Z,18.30
2019-01-25T11:54:38.880Z,21.53
2019-01-25T11:57:06.127Z,18.73
2019-01-25T11:59:33.234Z,18.10
2019-01-25T12:02:00.571Z,20.23
2019-01-25T12:04:27.892Z,18.53
2019-01-25T12:06:55.339Z,17.13
2019-01-25T12:09:22.579Z,17.70
2019-01-25T12:11:49.956Z,20.33
2019-01-25T12:14:17.275Z,19.77
2019-01-25T12:16:44.495Z,17.90
2019-01-25T12:19:11.751Z,18.73
2019-01-25T12:21:39.056Z,16.33
2019-01-25T12:24:06.399Z,17.57
2019-01-25T12:26:33.642Z,17.77
2019-01-25T12:29:00.982Z,20.57
2019-01-25T12:31:28.290Z,19.57
2019-01-25T12:33:55.524Z,16.90
2019-01-25T12:36:22.787Z,21.53
2019-01-25T12:38:50.132Z,18.47
2019-01-25T12:41:17.748Z,21.70
2019-01-25T12:43:45.225Z,19.90
2019-01-25T12:46:12.534Z,19.17
2019-01-25T12:48:39.790Z,16.73
2019-01-25T12:51:35.464Z,16.87
2019-01-25T12:54:03.405Z,19.30
2019-01-25T12:56:30.744Z,19.40
2019-01-25T12:58:58.183Z,20.23
2019-01-25T13:01:25.608Z,19.47
2019-01-25T13:03:53.519Z,17.53
2019-01-25T13:06:20.800Z,18.13
2019-01-25T13:08:48.028Z,18.00
2019-01-25T13:11:15.247Z,18.37
2019-01-25T13:13:42.597Z,18.43
2019-01-25T13:16:10.111Z,20.23
2019-01-25T13:18:37.467Z,17.93
2019-01-25T13:21:04.716Z,18.63
2019-01-25T13:23:31.959Z,16.73
2019-01-25T13:25:59.496Z,15.97
2019-01-25T13:28:26.894Z,14.53
2019-01-25T13:30:54.275Z,15.07
2019-01-25T13:33:21.633Z,18.93
2019-01-25T13:35:49.325Z,18.53
2019-01-25T13:38:16.634Z,16.70
2019-01-25T13:40:43.998Z,18.10
2019-01-25T13:43:11.320Z,17.07
2019-01-25T13:45:38.527Z,18.07
2019-01-25T13:48:06.087Z,17.10
2019-01-25T13:50:33.385Z,19.90
2019-01-25T13:53:00.723Z,17.37
2019-01-25T13:55:28.117Z,17.30
2019-01-25T13:57:55.427Z,19.13
2019-01-25T14:00:24.883Z,18.07
2019-01-25T14:02:52.230Z,15.63
2019-01-25T14:05:19.579Z,21.43
2019-01-25T14:07:46.895Z,19.87
2019-01-25T14:10:17.656Z,19.00
2019-01-25T14:12:45.159Z,19.90
2019-01-25T14:15:12.595Z,20.77
2019-01-25T14:17:39.957Z,20.83
2019-01-25T14:20:10.983Z,24.73
2019-01-25T14:22:38.319Z,21.87
2019-01-25T14:25:06.391Z,21.70
2019-01-25T14:27:33.647Z,20.13
2019-01-25T14:30:01.152Z,20.03
2019-01-25T14:32:28.519Z,19.80
2019-01-25T14:34:55.755Z,18.50
2019-01-25T14:37:23.003Z,22.23
2019-01-25T14:39:50.255Z,21.33
2019-01-25T14:42:17.608Z,18.90
2019-01-25T14:44:45.123Z,26.37
2019-01-25T14:47:12.454Z,21.00
2019-01-25T14:49:39.806Z,21.80
2019-01-25T14:52:07.140Z,26.93
2019-01-25T14:54:34.619Z,22.63
2019-01-25T14:57:01.846Z,26.53
2019-01-25T14:59:29.173Z,25.23
2019-01-25T15:01:56.725Z,26.67
2019-01-25T15:04:24.036Z,25.93
2019-01-25T15:06:51.397Z,25.33
2019-01-25T15:09:18.861Z,23.87
2019-01-25T15:11:46.339Z,25.13
2019-01-25T15:14:13.636Z,24.10
2019-01-25T15:16:41.117Z,22.07
2019-01-25T15:19:08.596Z,23.33
2019-01-25T15:21:35.911Z,22.87
2019-01-25T15:24:03.477Z,24.93
2019-01-25T15:26:30.977Z,26.37
2019-01-25T15:28:58.324Z,21.93
2019-01-25T15:31:25.876Z,24.83
2019-01-25T15:33:53.319Z,26.53
2019-01-25T15:36:20.679Z,21.90
2019-01-25T15:38:48.028Z,20.60
2019-01-25T15:41:15.455Z,21.50
2019-01-25T15:43:42.775Z,23.67
2019-01-25T15:46:10.121Z,25.80
2019-01-25T15:48:37.443Z,26.07
2019-01-25T15:51:05.024Z,24.10
2019-01-25T15:53:32.443Z,24.80
2019-01-25T15:55:59.755Z,24.30
2019-01-25T15:58:27.200Z,24.20
2019-01-25T16:00:54.413Z,29.47
2019-01-25T16:03:21.766Z,21.07
2019-01-25T16:05:49.187Z,22.63
2019-01-25T16:08:16.519Z,25.67
2019-01-25T16:10:43.739Z,27.53
2019-01-25T16:13:11.096Z,32.57
2019-01-25T16:15:38.337Z,30.67
2019-01-25T16:18:05.831Z,34.43
2019-01-25T16:20:33.114Z,26.03
2019-01-25T16:23:00.417Z,27.73
2019-01-25T16:25:29.907Z,26.47
2019-01-25T16:27:57.227Z,24.40
2019-01-25T16:30:26.673Z,26.57
2019-01-25T16:32:53.992Z,26.37
2019-01-25T16:35:21.419Z,22.90
2019-01-25T16:37:52.390Z,25.10
2019-01-25T16:40:25.583Z,26.57
2019-01-25T16:42:54.986Z,25.90
2019-01-25T16:45:28.166Z,28.40
2019-01-25T16:47:55.496Z,26.47
2019-01-25T16:50:23.857Z,30.03
2019-01-25T16:52:51.373Z,31.73
2019-01-25T16:55:18.828Z,33.20
2019-01-25T16:57:46.089Z,33.03
2019-01-25T17:00:35.703Z,30.13
2019-01-25T17:03:03.612Z,28.43
2019-01-25T17:05:31.317Z,30.43
2019-01-25T17:07:58.947Z,30.63
2019-01-25T17:10:26.445Z,27.73
2019-01-25T17:12:53.869Z,29.73
2019-01-25T17:15:21.211Z,30.80
2019-01-25T17:17:48.447Z,31.30
2019-01-25T17:20:21.112Z,28.13
2019-01-25T17:22:46.268Z,32.47
2019-01-25T17:25:13.832Z,34.20
2019-01-25T17:27:41.720Z,30.90
2019-01-25T17:30:13.552Z,37.50
2019-01-25T17:32:41.020Z,31.90
2019-01-25T17:35:08.364Z,32.47
2019-01-25T17:37:35.672Z,34.73
2019-01-25T17:40:05.960Z,38.93
2019-01-25T17:42:33.264Z,32.93
2019-01-25T17:45:00.633Z,29.83
2019-01-25T17:47:28.151Z,32.87
2019-01-25T17:49:55.254Z,33.80
2019-01-25T17:52:22.663Z,32.80
2019-01-25T17:54:49.930Z,36.00
2019-01-25T17:57:17.390Z,32.73
2019-01-25T17:59:44.796Z,31.90
2019-01-25T18:02:12.095Z,36.07
2019-01-25T18:04:39.402Z,35.90
2019-01-25T18:07:06.632Z,35.40
2019-01-25T18:09:34.067Z,34.93
2019-01-25T18:12:01.388Z,35.87
2019-01-25T18:14:28.692Z,36.13
2019-01-25T18:16:56.019Z,33.77
2019-01-25T18:19:23.556Z,33.10
2019-01-25T18:21:50.786Z,31.00
2019-01-25T18:24:18.228Z,30.33
2019-01-25T18:26:45.558Z,34.03
2019-01-25T18:29:17.439Z,32.70
2019-01-25T18:31:44.784Z,28.13
2019-01-25T18:34:12.135Z,32.47
2019-01-25T18:36:39.740Z,33.97
2019-01-25T18:39:07.709Z,33.97
2019-01-25T18:41:35.465Z,29.37
2019-01-25T18:44:03.167Z,34.83
2019-01-25T18:46:30.394Z,39.60
2019-01-25T18:48:57.861Z,33.90
2019-01-25T18:51:25.184Z,32.90
2019-01-25T18:53:52.450Z,32.47
2019-01-25T18:56:21.646Z,32.63
2019-01-25T18:58:49.068Z,31.30
2019-01-25T19:01:16.478Z,40.60
2019-01-25T19:03:43.883Z,29.80
2019-01-25T19:06:11.232Z,57.47
2019-01-25T19:08:38.661Z,29.90
2019-01-25T19:11:06.139Z,32.30
2019-01-25T19:13:33.460Z,31.80
2019-01-25T19:16:01.812Z,32.73
2019-01-25T19:18:29.147Z,66.73
2019-01-25T19:20:56.510Z,32.03
2019-01-25T19:23:23.888Z,32.03
2019-01-25T19:25:51.208Z,31.07
2019-01-25T19:28:18.527Z,29.30
2019-01-25T19:30:46.288Z,30.73
2019-01-25T19:33:13.606Z,33.03
2019-01-25T19:35:41.402Z,33.30
2019-01-25T19:38:10.779Z,33.20
2019-01-25T19:40:38.028Z,29.73
2019-01-25T19:43:05.967Z,26.67
2019-01-25T19:45:33.316Z,27.83
2019-01-25T19:48:00.842Z,33.10
2019-01-25T19:50:28.362Z,27.13
2019-01-25T19:52:55.716Z,27.50
2019-01-25T19:55:24.655Z,30.00
2019-01-25T19:57:52.129Z,25.50
2019-01-25T20:00:28.768Z,31.83
2019-01-25T20:02:56.119Z,24.17
2019-01-25T20:05:24.808Z,33.47
2019-01-25T20:07:52.051Z,31.00
2019-01-25T20:10:20.242Z,28.73
2019-01-25T20:12:47.774Z,28.13
2019-01-25T20:15:19.488Z,31.87
2019-01-25T20:17:45.341Z,27.80
2019-01-25T20:20:15.595Z,27.77
2019-01-25T20:22:42.933Z,26.10
2019-01-25T20:25:10.268Z,27.80
2019-01-25T20:27:37.522Z,25.60
2019-01-25T20:30:08.791Z,25.30
2019-01-25T20:32:36.019Z,27.63
2019-01-25T20:35:04.192Z,30.57
2019-01-25T20:37:31.568Z,28.23
2019-01-25T20:39:58.852Z,29.03
2019-01-25T20:42:26.173Z,28.23
2019-01-25T20:44:53.722Z,27.50
2019-01-25T20:47:20.985Z,24.87
2019-01-25T20:49:48.482Z,27.67
2019-01-25T20:52:15.896Z,25.30
2019-01-25T20:54:43.436Z,24.40
2019-01-25T20:57:10.799Z,25.83
2019-01-25T20:59:38.219Z,27.53
2019-01-25T21:02:06.256Z,27.50
2019-01-25T21:04:33.757Z,28.60
2019-01-25T21:07:01.213Z,23.97
2019-01-25T21:09:28.544Z,27.13
2019-01-25T21:11:56.404Z,27.40
2019-01-25T21:14:23.644Z,27.73
2019-01-25T21:16:51.000Z,26.30
2019-01-25T21:19:18.304Z,26.20
2019-01-25T21:21:45.616Z,25.47
2019-01-25T21:24:13.136Z,25.67
2019-01-25T21:26:40.452Z,27.37
2019-01-25T21:29:07.875Z,25.70
2019-01-25T21:31:35.260Z,25.33
2019-01-25T21:34:03.027Z,21.27
2019-01-25T21:36:30.385Z,24.63
2019-01-25T21:38:57.652Z,28.07
2019-01-25T21:41:24.883Z,24.43
2019-01-25T21:43:52.237Z,29.27
2019-01-25T21:46:19.543Z,26.40
2019-01-25T21:48:46.792Z,23.60
2019-01-25T21:51:14.123Z,27.73
2019-01-25T21:53:41.522Z,23.13
2019-01-25T21:56:08.787Z,25.17
2019-01-25T21:58:36.216Z,25.03
2019-01-25T22:01:03.793Z,23.07
2019-01-25T22:03:32.171Z,26.83
2019-01-25T22:05:59.668Z,24.67
2019-01-25T22:08:27.164Z,23.33
2019-01-25T22:10:54.516Z,25.27
2019-01-25T22:13:21.827Z,26.17
2019-01-25T22:15:51.030Z,25.50
2019-01-25T22:18:18.212Z,26.07
2019-01-25T22:20:45.623Z,24.93
2019-01-25T22:23:13.190Z,26.27
2019-01-25T22:25:40.598Z,25.43
2019-01-25T22:28:07.832Z,27.57
2019-01-25T22:30:35.291Z,28.30
2019-01-25T22:33:02.647Z,24.57
2019-01-25T22:35:29.881Z,28.73
2019-01-25T22:37:57.327Z,25.30
2019-01-25T22:40:26.501Z,25.07
2019-01-25T22:42:53.984Z,26.07
2019-01-25T22:45:23.156Z,24.00
2019-01-25T22:47:50.675Z,25.70
2019-01-25T22:50:20.171Z,24.93
2019-01-25T22:52:47.443Z,25.60
2019-01-25T22:55:15.419Z,27.53
2019-01-25T22:57:42.889Z,26.27
2019-01-25T23:00:34.536Z,27.23
2019-01-25T23:03:02.227Z,23.67
2019-01-25T23:05:59.919Z,30.20
2019-01-25T23:08:27.405Z,24.67
2019-01-25T23:10:54.742Z,23.13
2019-01-25T23:13:22.067Z,26.20
2019-01-25T23:15:49.407Z,23.40
2019-01-25T23:18:16.724Z,24.40
2019-01-25T23:20:44.188Z,25.83
2019-01-25T23:23:11.507Z,22.87
2019-01-25T23:25:38.993Z,22.47
2019-01-25T23:28:06.305Z,21.37
2019-01-25T23:30:33.524Z,23.50
2019-01-25T23:33:00.852Z,25.40
2019-01-25T23:35:28.344Z,24.77
2019-01-25T23:37:55.599Z,24.57
2019-01-25T23:40:22.927Z,25.33
2019-01-25T23:42:50.292Z,22.67
2019-01-25T23:45:17.631Z,25.90
2019-01-25T23:47:45.066Z,23.40
2019-01-25T23:50:12.309Z,24.33
2019-01-25T23:52:39.664Z,26.27
2019-01-25T23:55:07.791Z,24.37
2019-01-25T23:57:35.096Z,25.13
